Time;durP1;ratioP1;P1;durP2;ratioP2;P2;SDS_P1;SDS_P2;PMS_P1;PMS_P2;Temp;Humidity;BMP_temperature;BMP_pressure;BME280_temperature;BME280_humidity;BME280_pressure;Samples;Min_cycle;Max_cycle;Signal;HPM_P1;HPM_P2
2022/08/17 00:00:25;;;;;;;3.53;2.72;;;;;;;23.84;59.67;98586.63;4916022;29;20621;-58
2022/08/17 00:03:01;;;;;;;5.38;3.10;;;;;;;23.71;59.76;98598.75;4915568;29;20208;-58
2022/08/17 00:05:29;;;;;;;4.30;2.88;;;;;;;23.70;59.87;98593.72;4915741;29;20240;-58
2022/08/17 00:07:56;;;;;;;5.00;3.08;;;;;;;23.62;60.36;98594.72;4915447;29;20209;-66
2022/08/17 00:10:23;;;;;;;4.97;3.00;;;;;;;23.58;60.67;98588.31;4915697;29;20232;-66
2022/08/17 00:12:52;;;;;;;4.90;3.30;;;;;;;23.51;60.64;98590.16;4915397;29;20205;-66
2022/08/17 00:15:20;;;;;;;3.92;3.00;;;;;;;23.49;61.09;98589.56;4915638;29;20220;-66
2022/08/17 00:17:48;;;;;;;4.35;2.75;;;;;;;23.39;61.26;98584.78;4915308;29;20603;-66
2022/08/17 00:20:15;;;;;;;4.70;3.25;;;;;;;23.43;61.73;98585.16;4915626;29;20231;-66
2022/08/17 00:22:42;;;;;;;5.00;3.28;;;;;;;23.32;61.95;98581.38;4915186;29;20390;-65
2022/08/17 00:25:13;;;;;;;4.13;3.17;;;;;;;23.31;62.13;98586.81;4915471;29;20228;-66
2022/08/17 00:27:40;;;;;;;4.30;3.03;;;;;;;23.28;62.38;98578.38;4915461;29;20209;-58
2022/08/17 00:30:11;;;;;;;4.70;3.33;;;;;;;23.28;62.58;98578.38;4915020;29;20246;-58
2022/08/17 00:32:39;;;;;;;4.05;3.00;;;;;;;23.26;62.62;98580.38;4915366;29;20204;-58
2022/08/17 00:35:09;;;;;;;5.18;3.20;;;;;;;23.31;62.47;98573.78;4914915;29;20235;-58
2022/08/17 00:37:36;;;;;;;4.20;2.90;;;;;;;23.25;62.79;98578.00;4915367;29;20373;-58
2022/08/17 00:40:04;;;;;;;3.92;2.88;;;;;;;23.27;62.69;98576.78;4915161;29;20250;-58
2022/08/17 00:42:31;;;;;;;5.05;3.35;;;;;;;23.26;62.89;98577.78;4914991;29;20698;-58
2022/08/17 00:44:58;;;;;;;3.80;3.20;;;;;;;23.28;62.61;98581.00;4915020;29;20232;-58
2022/08/17 00:47:27;;;;;;;4.43;3.10;;;;;;;23.30;62.91;98574.75;4914864;29;20212;-59
2022/08/17 00:49:53;;;;;;;4.13;3.30;;;;;;;23.25;62.66;98570.97;4914683;29;20251;-58
2022/08/17 00:52:25;;;;;;;4.18;3.30;;;;;;;23.23;63.00;98574.78;4914706;29;20277;-58
2022/08/17 00:54:55;;;;;;;5.53;3.10;;;;;;;23.26;62.95;98576.97;4914525;29;20778;-58
2022/08/17 00:57:27;;;;;;;3.55;2.63;;;;;;;23.27;62.53;98571.56;4914610;29;20682;-66
2022/08/17 00:59:57;;;;;;;3.53;3.08;;;;;;;23.28;62.86;98572.38;4914708;29;20224;-66
2022/08/17 01:02:24;;;;;;;4.55;2.97;;;;;;;23.25;62.94;98568.34;4914493;29;20193;-66
2022/08/17 01:04:54;;;;;;;4.43;3.00;;;;;;;23.30;62.78;98579.97;4914489;29;20236;-67
2022/08/17 01:07:23;;;;;;;5.05;3.28;;;;;;;23.28;62.85;98573.16;4914204;29;20209;-66
2022/08/17 01:09:50;;;;;;;4.50;3.13;;;;;;;23.26;63.33;98577.78;4914123;29;20240;-58
2022/08/17 01:12:17;;;;;;;4.00;2.97;;;;;;;23.32;63.07;98583.97;4914353;29;20204;-58
2022/08/17 01:14:44;;;;;;;5.25;3.33;;;;;;;23.23;63.57;98580.78;4913913;29;20228;-58
2022/08/17 01:17:12;;;;;;;4.07;3.13;;;;;;;23.18;63.54;98572.78;4914302;29;20196;-67
2022/08/17 01:19:41;;;;;;;5.55;3.25;;;;;;;23.14;63.77;98571.59;4914316;29;20224;-66
2022/08/17 01:22:17;;;;;;;5.43;3.05;;;;;;;23.12;63.69;98578.81;4914063;29;20220;-66
2022/08/17 01:24:48;;;;;;;4.88;3.30;;;;;;;23.19;64.12;98566.56;4914564;29;20223;-65
2022/08/17 01:27:16;;;;;;;3.90;2.83;;;;;;;23.15;63.89;98570.56;4914284;29;20208;-67
2022/08/17 01:29:48;;;;;;;5.07;2.90;;;;;;;23.24;63.81;98571.97;4914119;29;20699;-67
2022/08/17 01:32:15;;;;;;;5.45;3.35;;;;;;;23.21;63.70;98567.19;4914107;29;20207;-66
2022/08/17 01:34:42;;;;;;;4.38;3.15;;;;;;;23.21;63.93;98564.56;4914203;29;20225;-58
2022/08/17 01:37:09;;;;;;;3.92;3.15;;;;;;;23.12;63.71;98562.38;4913804;29;20704;-58
2022/08/17 01:39:42;;;;;;;5.30;3.33;;;;;;;23.12;64.14;98552.72;4914041;29;20233;-66
2022/08/17 01:42:13;;;;;;;4.70;3.20;;;;;;;23.17;63.86;98559.97;4913886;29;20208;-66
2022/08/17 01:44:40;;;;;;;4.22;2.80;;;;;;;23.12;64.05;98551.94;4913968;29;20263;-66
2022/08/17 01:47:06;;;;;;;4.13;3.15;;;;;;;23.15;64.47;98552.31;4913993;29;20216;-66
2022/08/17 01:49:33;;;;;;;4.25;2.88;;;;;;;23.11;64.29;98551.16;4913666;29;20243;-66
2022/08/17 01:52:05;;;;;;;4.20;3.20;;;;;;;23.06;64.09;98553.56;4913597;29;20224;-58
2022/08/17 01:54:33;;;;;;;4.97;3.40;;;;;;;23.10;64.16;98559.19;4913911;29;20232;-66
2022/08/17 01:57:01;;;;;;;5.00;3.40;;;;;;;23.07;64.22;98557.78;4913639;29;20208;-66
2022/08/17 01:59:28;;;;;;;4.53;3.25;;;;;;;23.08;64.40;98551.56;4913588;29;20231;-66
2022/08/17 02:01:55;;;;;;;5.15;3.47;;;;;;;23.05;64.05;98551.97;4913364;29;20263;-65
2022/08/17 02:04:22;;;;;;;3.60;2.75;;;;;;;23.00;64.40;98554.38;4913621;29;20208;-58
2022/08/17 02:06:49;;;;;;;4.35;3.10;;;;;;;22.97;64.43;98560.00;4913411;29;20203;-58
2022/08/17 02:09:16;;;;;;;4.45;2.80;;;;;;;22.97;64.42;98565.22;4913495;29;20240;-58
2022/08/17 02:11:43;;;;;;;5.22;3.00;;;;;;;22.98;64.65;98565.03;4913672;29;20201;-59
2022/08/17 02:14:11;;;;;;;3.70;3.03;;;;;;;23.00;64.51;98556.97;4913348;29;20223;-58
2022/08/17 02:16:41;;;;;;;5.57;3.40;;;;;;;22.97;64.50;98562.59;4913382;29;20832;-58
2022/08/17 02:19:12;;;;;;;4.32;3.15;;;;;;;22.94;64.46;98565.59;4912996;29;20207;-59
2022/08/17 02:21:41;;;;;;;3.65;2.90;;;;;;;22.94;64.25;98570.81;4913401;29;20653;-58
2022/08/17 02:24:13;;;;;;;3.50;2.80;;;;;;;22.90;64.28;98565.19;4913041;29;20685;-58
2022/08/17 02:26:43;;;;;;;3.40;2.90;;;;;;;22.92;64.24;98567.59;4912721;29;20243;-59
2022/08/17 02:29:13;;;;;;;3.70;2.92;;;;;;;22.92;64.42;98557.16;4912996;29;20756;-59
2022/08/17 02:31:40;;;;;;;3.53;2.80;;;;;;;22.91;64.34;98560.78;4913383;29;20224;-66
2022/08/17 02:34:07;;;;;;;3.38;2.63;;;;;;;22.90;64.91;98559.19;4912983;29;20216;-67
2022/08/17 02:36:34;;;;;;;4.18;2.75;;;;;;;22.90;64.43;98553.97;4913020;29;20219;-67
2022/08/17 02:39:03;;;;;;;5.07;3.17;;;;;;;22.91;64.48;98563.38;4913065;29;20705;-66
2022/08/17 02:41:29;;;;;;;3.90;2.80;;;;;;;22.89;64.52;98560.97;4913088;29;20208;-66
2022/08/17 02:43:56;;;;;;;3.70;2.67;;;;;;;22.90;64.03;98565.19;4912890;29;20200;-66
2022/08/17 02:46:25;;;;;;;5.93;3.08;;;;;;;22.85;64.42;98564.22;4913090;29;20220;-58
2022/08/17 02:48:52;;;;;;;4.85;2.80;;;;;;;22.94;64.25;98570.81;4912863;29;20211;-59
2022/08/17 02:51:18;;;;;;;4.00;2.73;;;;;;;22.91;64.04;98566.00;4913042;29;20239;-58
2022/08/17 02:53:46;;;;;;;3.38;2.45;;;;;;;22.89;63.69;98568.00;4912942;29;20219;-59
2022/08/17 02:56:12;;;;;;;4.28;2.90;;;;;;;23.00;63.74;98563.00;4912922;29;20228;-59
2022/08/17 02:58:39;;;;;;;3.95;2.53;;;;;;;22.91;63.98;98566.78;4913108;29;20290;-58
2022/08/17 03:01:09;;;;;;;4.28;2.97;;;;;;;22.93;63.83;98577.03;4912844;29;20231;-59
2022/08/17 03:03:38;;;;;;;4.07;3.03;;;;;;;22.89;64.08;98573.22;4912899;29;20208;-58
2022/08/17 03:06:07;;;;;;;3.77;2.90;;;;;;;22.88;63.98;98576.84;4913172;29;20231;-58
2022/08/17 03:08:35;;;;;;;3.95;2.80;;;;;;;22.81;64.12;98571.63;4912873;29;20235;-59
2022/08/17 03:11:02;;;;;;;3.75;2.63;;;;;;;22.78;64.74;98588.47;4912809;29;20240;-66
2022/08/17 03:13:29;;;;;;;3.63;2.67;;;;;;;22.75;64.29;98583.66;4912782;29;20200;-66
2022/08/17 03:15:56;;;;;;;3.97;2.50;;;;;;;22.76;64.08;98585.25;4912761;29;20287;-66
2022/08/17 03:18:24;;;;;;;4.25;2.83;;;;;;;22.76;65.03;98590.47;4912675;29;20210;-67
2022/08/17 03:20:53;;;;;;;3.53;2.80;;;;;;;22.73;64.71;98585.66;4912659;29;20769;-67
2022/08/17 03:23:20;;;;;;;6.10;3.33;;;;;;;22.72;64.59;98578.03;4912921;29;20207;-67
2022/08/17 03:25:46;;;;;;;4.80;3.20;;;;;;;22.68;64.90;98580.25;4912990;29;20788;-66
2022/08/17 03:28:13;;;;;;;4.37;3.00;;;;;;;22.69;64.92;98581.88;4912643;29;20215;-58
2022/08/17 03:30:40;;;;;;;3.70;2.77;;;;;;;22.68;65.18;98582.84;4913080;29;20244;-59
2022/08/17 03:33:09;;;;;;;4.80;2.90;;;;;;;22.66;64.95;98587.47;4912574;29;20215;-58
2022/08/17 03:35:39;;;;;;;3.83;2.60;;;;;;;22.58;65.31;98587.69;4912898;29;20805;-58
2022/08/17 03:38:08;;;;;;;3.33;2.60;;;;;;;22.65;64.62;98588.47;4914203;29;20692;-58
2022/08/17 03:40:36;;;;;;;4.27;3.20;;;;;;;22.60;64.99;98585.66;4915863;29;20227;-58
2022/08/17 03:43:07;;;;;;;5.40;3.50;;;;;;;22.57;64.64;98592.09;4915995;29;20690;-58
2022/08/17 03:56:42;;;;;;;4.23;3.10;;;;;;;22.58;65.46;98624.94;4916110;29;20298;-58
2022/08/17 03:59:10;;;;;;;6.10;3.60;;;;;;;22.64;65.32;98623.34;4915415;29;20215;-58
2022/08/17 04:01:37;;;;;;;4.07;3.07;;;;;;;22.66;65.33;98626.56;4915934;29;20774;-66
2022/08/17 04:04:04;;;;;;;7.18;3.30;;;;;;;22.63;65.04;98626.97;4915574;29;20200;-66
2022/08/17 04:06:31;;;;;;;4.03;3.03;;;;;;;22.57;65.27;98625.13;4915661;29;20219;-66
2022/08/17 04:09:00;;;;;;;4.13;2.90;;;;;;;22.57;65.28;98627.75;4915494;29;20204;-66
2022/08/17 04:11:26;;;;;;;7.03;3.20;;;;;;;22.59;65.32;98625.75;4915464;29;20251;-66
2022/08/17 04:13:55;;;;;;;4.27;3.03;;;;;;;22.65;65.65;98624.94;4915403;29;20204;-66
2022/08/17 04:16:22;;;;;;;6.03;3.53;;;;;;;22.66;65.62;98630.97;4915794;29;20294;-66
2022/08/17 04:18:49;;;;;;;5.68;3.00;;;;;;;22.63;65.88;98626.97;4915348;29;20210;-67
2022/08/17 04:21:16;;;;;;;4.37;2.67;;;;;;;22.66;66.39;98625.75;4915557;29;20239;-58
2022/08/17 04:23:43;;;;;;;4.13;2.90;;;;;;;22.72;66.16;98628.38;4915408;29;20196;-58
2022/08/17 04:26:13;;;;;;;3.57;2.77;;;;;;;22.74;66.43;98634.16;4915229;29;20231;-58
2022/08/17 04:28:40;;;;;;;3.97;2.90;;;;;;;22.76;65.60;98624.34;4915429;29;20210;-58
2022/08/17 04:31:08;;;;;;;3.38;2.70;;;;;;;22.79;65.82;98631.78;4915156;29;20244;-67
2022/08/17 04:33:34;;;;;;;3.67;2.83;;;;;;;22.87;66.08;98627.38;4915091;29;20220;-58
2022/08/17 04:36:04;;;;;;;4.90;2.87;;;;;;;22.94;65.31;98641.19;4914995;29;20224;-58
2022/08/17 04:38:33;;;;;;;4.17;2.80;;;;;;;22.92;65.58;98638.81;4914948;29;20196;-66
2022/08/17 04:43:47;;;;;;;4.37;3.00;;;;;;;23.12;64.63;98645.81;4915085;29;20200;-58
2022/08/17 04:46:16;;;;;;;4.00;2.97;;;;;;;23.20;65.31;98646.41;4914865;29;20236;-58
2022/08/17 04:48:45;;;;;;;4.25;3.08;;;;;;;23.25;64.09;98651.81;4914063;29;20211;-58
2022/08/17 04:51:15;;;;;;;3.58;2.80;;;;;;;23.35;64.25;98646.19;4915200;29;20246;-58
2022/08/17 04:53:44;;;;;;;4.43;2.85;;;;;;;23.45;63.68;98635.34;4914975;29;20212;-58
2022/08/17 04:56:14;;;;;;;4.68;2.70;;;;;;;23.51;63.07;98639.72;4915176;29;20709;-58
2022/08/17 04:58:41;;;;;;;5.80;2.95;;;;;;;23.64;62.70;98634.47;4914748;29;20204;-58
2022/08/17 05:01:09;;;;;;;4.07;2.95;;;;;;;23.83;62.65;98637.25;4914658;29;20730;-66
2022/08/17 05:03:36;;;;;;;5.47;3.10;;;;;;;23.84;62.19;98644.06;4914948;29;20208;-66
2022/08/17 05:06:03;;;;;;;3.65;2.58;;;;;;;23.92;62.35;98646.44;4914887;29;20702;-59
2022/08/17 05:08:30;;;;;;;4.43;2.42;;;;;;;24.10;60.89;98646.53;4914334;29;20207;-58
2022/08/17 05:10:57;;;;;;;5.90;3.08;;;;;;;24.20;60.72;98650.50;4914364;29;20659;-58
2022/08/17 05:13:26;;;;;;;5.53;3.20;;;;;;;24.36;62.54;98647.41;4914516;29;20211;-66
2022/08/17 05:15:55;;;;;;;4.95;2.72;;;;;;;24.56;61.40;98642.88;4914356;29;20686;-66
2022/08/17 05:18:24;;;;;;;4.90;3.10;;;;;;;24.71;59.05;98650.41;4914276;29;20215;-66
2022/08/17 05:20:52;;;;;;;4.43;3.05;;;;;;;24.85;59.76;98648.50;4914301;29;20228;-66
2022/08/17 05:23:20;;;;;;;4.40;2.95;;;;;;;24.89;58.82;98652.28;4914407;29;20205;-66
2022/08/17 05:25:49;;;;;;;3.53;2.75;;;;;;;25.10;59.50;98652.91;4914442;29;20251;-66
2022/08/17 05:28:19;;;;;;;3.70;2.63;;;;;;;25.31;57.80;98655.16;4914112;29;20211;-67
2022/08/17 05:30:47;;;;;;;4.47;3.00;;;;;;;25.42;58.41;98657.03;4914220;29;20248;-66
2022/08/17 05:33:16;;;;;;;3.88;2.72;;;;;;;25.46;56.44;98652.97;4914081;29;20204;-66
2022/08/17 05:35:47;;;;;;;4.35;3.22;;;;;;;25.66;58.16;98647.53;4914368;29;20618;-58
2022/08/17 05:38:15;;;;;;;3.33;2.53;;;;;;;25.77;56.77;98651.22;4913964;29;20200;-66
2022/08/17 05:40:42;;;;;;;3.22;2.58;;;;;;;25.79;56.33;98662.28;4914084;29;20231;-66
2022/08/17 05:43:11;;;;;;;3.47;2.63;;;;;;;26.06;56.63;98664.59;4913943;29;20202;-58
2022/08/17 05:45:41;;;;;;;3.88;2.80;;;;;;;26.27;54.77;98661.50;4913804;29;20227;-58
2022/08/17 05:48:09;;;;;;;3.78;3.00;;;;;;;26.46;54.51;98656.97;4913683;29;20208;-58
2022/08/17 05:50:48;;;;;;;5.35;2.60;;;;;;;26.64;56.23;98656.13;4913735;29;20244;-58
2022/08/17 05:53:24;;;;;;;3.75;2.70;;;;;;;26.66;52.75;98656.72;4913966;29;20592;-58
2022/08/17 05:55:59;;;;;;;3.08;2.45;;;;;;;26.75;53.87;98657.97;4913523;29;20263;-58
2022/08/17 05:58:32;;;;;;;3.28;2.42;;;;;;;26.98;53.21;98659.03;4913885;29;20641;-66
2022/08/17 06:01:07;;;;;;;3.75;2.80;;;;;;;27.11;52.58;98653.53;4913463;29;20227;-66
2022/08/17 06:03:44;;;;;;;4.85;2.97;;;;;;;27.11;52.58;98661.41;4913636;29;20210;-67
2022/08/17 06:06:35;;;;;;;3.20;2.65;;;;;;;27.42;52.86;98664.75;4913898;29;20729;-67
2022/08/17 06:09:15;;;;;;;4.05;2.97;;;;;;;27.58;51.83;98678.97;4913270;29;20216;-67
2022/08/17 06:11:47;;;;;;;4.03;3.05;;;;;;;27.63;51.59;98676.47;4913497;29;20334;-66
2022/08/17 06:14:30;;;;;;;7.82;3.35;;;;;;;27.57;51.15;98672.94;4913340;29;20695;-67
2022/08/17 06:17:01;;;;;;;3.58;2.65;;;;;;;27.78;50.87;98684.69;4913209;29;20215;-66
2022/08/17 06:19:36;;;;;;;4.13;2.88;;;;;;;27.70;50.66;98677.94;4913562;29;20235;-67
2022/08/17 06:22:06;;;;;;;3.42;2.60;;;;;;;27.92;49.93;98679.97;4913303;29;20575;-66
2022/08/17 06:24:38;;;;;;;3.58;2.88;;;;;;;28.14;51.03;98680.13;4913181;29;20220;-66
2022/08/17 06:27:13;;;;;;;3.50;2.65;;;;;;;28.23;49.97;98676.09;4913152;29;20204;-67
2022/08/17 06:29:48;;;;;;;4.28;2.90;;;;;;;28.36;50.87;98680.25;4913234;29;20239;-66
2022/08/17 06:32:16;;;;;;;4.38;2.97;;;;;;;28.26;50.45;98680.06;4913358;29;20208;-67
2022/08/17 06:34:45;;;;;;;3.85;2.72;;;;;;;28.29;49.21;98685.66;4913132;29;20228;-66
2022/08/17 06:37:38;;;;;;;5.63;2.67;;;;;;;28.59;48.46;98684.59;4913267;29;20788;-66
2022/08/17 06:40:20;;;;;;;3.20;2.70;;;;;;;28.93;52.22;98679.38;4913085;29;20256;-66
2022/08/17 06:42:54;;;;;;;4.38;3.22;;;;;;;29.06;48.75;98677.25;4913180;29;20208;-67
2022/08/17 06:45:27;;;;;;;3.97;2.85;;;;;;;29.19;47.56;98675.31;4913431;29;20623;-61
2022/08/17 06:48:04;;;;;;;3.45;2.72;;;;;;;29.41;48.72;98676.13;4913010;29;20204;-67
2022/08/17 06:50:36;;;;;;;4.25;2.97;;;;;;;29.44;46.49;98665.13;4913052;29;20499;-67
2022/08/17 06:53:15;;;;;;;3.25;2.75;;;;;;;29.48;46.91;98671.47;4913005;29;20755;-59
2022/08/17 06:55:46;;;;;;;3.88;2.88;;;;;;;29.52;46.94;98667.31;4913190;29;20315;-59
2022/08/17 06:58:14;;;;;;;3.55;2.60;;;;;;;29.65;46.92;98668.03;4912974;29;20204;-59
2022/08/17 07:00:44;;;;;;;4.72;3.10;;;;;;;29.93;46.68;98662.56;4913017;29;20227;-67
2022/08/17 07:03:19;;;;;;;3.45;2.70;;;;;;;30.07;46.79;98657.69;4913368;29;20294;-58
2022/08/17 07:05:51;;;;;;;3.88;2.88;;;;;;;30.16;44.22;98663.28;4913395;29;20291;-66
2022/08/17 07:08:28;;;;;;;3.03;2.58;;;;;;;30.01;44.82;98675.28;4913068;29;20200;-58
2022/08/17 07:10:57;;;;;;;3.67;2.88;;;;;;;30.08;44.67;98669.00;4913017;29;20693;-67
2022/08/17 07:13:33;;;;;;;3.25;2.70;;;;;;;30.42;44.83;98665.16;4915457;29;20215;-58
2022/08/17 07:16:11;;;;;;;6.28;2.60;;;;;;;30.54;43.64;98677.38;4916922;29;20224;-58
2022/08/17 07:18:38;;;;;;;3.10;2.58;;;;;;;30.68;43.75;98673.28;4916707;29;20635;-58
2022/08/17 07:21:13;;;;;;;3.42;2.90;;;;;;;30.78;43.42;98676.03;4916576;29;20258;-59
2022/08/17 07:23:53;;;;;;;3.38;2.97;;;;;;;30.93;43.95;98678.00;4916430;29;20196;-58
2022/08/17 07:26:23;;;;;;;3.15;2.85;;;;;;;31.17;43.16;98683.69;4916369;29;20319;-59
2022/08/17 07:28:50;;;;;;;3.95;2.70;;;;;;;31.24;43.11;98681.63;4916767;29;20197;-58
2022/08/17 07:31:17;;;;;;;3.60;2.72;;;;;;;31.47;42.54;98680.44;4916117;29;20267;-67
2022/08/17 07:34:00;;;;;;;3.63;2.83;;;;;;;31.57;40.76;98685.00;4916242;29;20212;-67
2022/08/17 07:36:32;;;;;;;3.47;2.60;;;;;;;31.56;41.26;98686.03;4916199;29;20227;-67
2022/08/17 07:39:02;;;;;;;3.28;2.92;;;;;;;31.68;42.21;98676.06;4915871;29;20208;-67
2022/08/17 07:41:34;;;;;;;3.38;2.80;;;;;;;31.76;40.72;98687.97;4916115;29;20236;-67
2022/08/17 07:44:01;;;;;;;3.42;2.78;;;;;;;31.73;41.59;98683.97;4916198;29;20211;-67
2022/08/17 07:49:23;;;;;;;5.70;2.97;;;;;;;31.73;42.56;98683.97;4915886;29;20276;-68
2022/08/17 07:51:57;;;;;;;3.55;2.90;;;;;;;31.96;42.27;98685.41;4916123;29;20823;-59
2022/08/17 07:54:30;;;;;;;2.95;2.55;;;;;;;32.12;42.35;98683.59;4915896;29;20200;-59
2022/08/17 07:56:59;;;;;;;3.88;2.92;;;;;;;32.12;41.33;98680.97;4915954;29;20204;-59
2022/08/17 07:59:28;;;;;;;3.53;2.90;;;;;;;32.18;42.19;98682.56;4915873;29;20239;-59
2022/08/17 08:02:26;;;;;;;4.13;2.88;;;;;;;32.50;39.61;98676.28;4915797;29;20204;-58
2022/08/17 08:05:03;;;;;;;4.10;3.10;;;;;;;32.94;42.23;98686.31;4914829;29;20236;-58
2022/08/17 08:07:33;;;;;;;5.10;2.90;;;;;;;33.07;40.57;98693.72;4916000;29;20203;-59
2022/08/17 08:10:07;;;;;;;3.88;2.90;;;;;;;32.90;39.59;98680.75;4915550;29;20228;-59
2022/08/17 08:12:35;;;;;;;3.92;3.03;;;;;;;33.17;40.57;98678.88;4915756;29;20247;-68
2022/08/17 08:15:12;;;;;;;4.30;2.83;;;;;;;33.43;38.86;98672.44;4915552;29;20232;-67
2022/08/17 08:17:49;;;;;;;3.50;2.80;;;;;;;33.67;38.17;98674.50;4915484;29;20211;-67
2022/08/17 08:20:16;;;;;;;3.22;2.88;;;;;;;33.41;37.63;98679.88;4915737;29;20713;-67
2022/08/17 08:22:56;;;;;;;3.78;3.10;;;;;;;33.72;40.36;98677.13;4915568;29;20204;-59
2022/08/17 08:25:41;;;;;;;3.88;3.08;;;;;;;33.59;37.09;98676.63;4914287;29;20223;-59
2022/08/17 08:28:21;;;;;;;3.35;3.05;;;;;;;33.93;39.16;98680.47;4915254;29;20211;-68
2022/08/17 08:30:57;;;;;;;3.60;2.63;;;;;;;33.98;36.46;98673.28;4915195;29;20270;-68
2022/08/17 08:33:34;;;;;;;3.83;3.03;;;;;;;33.80;37.26;98671.25;4915229;29;20278;-68
2022/08/17 08:36:14;;;;;;;4.75;2.83;;;;;;;34.00;37.20;98670.34;4915025;29;20223;-68
2022/08/17 08:38:52;;;;;;;4.68;2.90;;;;;;;34.19;37.07;98668.66;4915069;29;20200;-67
2022/08/17 08:41:33;;;;;;;3.38;2.95;;;;;;;34.52;36.76;98670.81;4915055;29;20224;-67
2022/08/17 08:44:13;;;;;;;4.28;3.20;;;;;;;34.74;36.68;98663.22;4914972;29;20200;-68
2022/08/17 08:46:48;;;;;;;3.70;2.97;;;;;;;34.71;36.09;98666.44;4915099;29;20211;-67
2022/08/17 08:49:42;;;;;;;3.75;3.13;;;;;;;34.71;36.89;98663.78;4914817;29;20208;-68
2022/08/17 08:52:20;;;;;;;4.50;3.20;;;;;;;34.90;37.61;98666.50;4915020;29;20265;-67
2022/08/17 08:54:53;;;;;;;3.65;2.80;;;;;;;35.12;36.01;98666.06;4914910;29;20685;-67
2022/08/17 08:57:31;;;;;;;3.10;2.80;;;;;;;35.24;37.05;98666.44;4914815;29;20212;-67
2022/08/17 09:00:13;;;;;;;3.28;2.83;;;;;;;35.14;35.02;98658.56;4914747;29;20261;-67
2022/08/17 09:03:17;;;;;;;4.53;3.03;;;;;;;35.21;36.45;98659.03;4914741;29;20675;-67
2022/08/17 09:06:05;;;;;;;3.85;3.00;;;;;;;35.43;38.41;98665.69;4914848;29;20235;-68
2022/08/17 09:08:46;;;;;;;5.43;3.13;;;;;;;35.58;36.61;98666.34;4914685;29;20200;-68
2022/08/17 09:11:20;;;;;;;3.22;2.92;;;;;;;35.92;36.79;98669.88;4914449;29;20246;-67
2022/08/17 09:13:56;;;;;;;2.92;2.58;;;;;;;36.36;36.48;98668.72;4914775;29;20592;-68
2022/08/17 09:16:28;;;;;;;4.45;2.97;;;;;;;36.22;34.55;98669.47;4914468;29;20224;-68
2022/08/17 09:19:03;;;;;;;3.45;2.72;;;;;;;35.75;32.89;98671.19;4914196;29;20207;-68
2022/08/17 09:21:39;;;;;;;3.00;2.67;;;;;;;35.35;33.57;98657.28;4914339;29;20207;-68
2022/08/17 09:24:11;;;;;;;3.00;2.70;;;;;;;35.56;34.14;98655.19;4914115;29;20199;-68
2022/08/17 09:26:44;;;;;;;3.30;2.90;;;;;;;35.59;34.23;98657.28;4914298;29;20243;-68
2022/08/17 09:29:16;;;;;;;4.03;2.83;;;;;;;35.51;34.87;98665.06;4913999;29;20215;-68
2022/08/17 09:31:51;;;;;;;3.25;2.90;;;;;;;35.91;35.27;98655.00;4914135;29;20236;-68
2022/08/17 09:34:25;;;;;;;3.70;3.10;;;;;;;35.99;34.24;98662.34;4914091;29;20210;-68
2022/08/17 09:37:01;;;;;;;2.97;2.67;;;;;;;36.20;34.74;98658.31;4913677;29;20204;-68
2022/08/17 09:39:36;;;;;;;3.00;2.70;;;;;;;36.41;32.71;98655.31;4913796;29;20227;-68
2022/08/17 09:42:10;;;;;;;4.18;3.10;;;;;;;36.40;33.42;98664.41;4914147;29;20199;-68
2022/08/17 09:44:44;;;;;;;3.22;2.90;;;;;;;36.32;32.53;98651.75;4914022;29;20231;-68
2022/08/17 09:47:17;;;;;;;3.00;2.70;;;;;;;36.63;33.39;98646.75;4913845;29;20215;-68
2022/08/17 09:49:49;;;;;;;3.70;3.00;;;;;;;36.64;35.21;98645.66;4913944;29;20227;-68
2022/08/17 09:52:20;;;;;;;3.10;2.80;;;;;;;36.26;33.13;98654.47;4913729;29;20242;-68
2022/08/17 09:54:49;;;;;;;3.45;2.80;;;;;;;36.38;33.14;98651.38;4913721;29;20249;-68
2022/08/17 09:57:32;;;;;;;3.00;2.70;;;;;;;36.35;33.29;98657.28;4913719;29;20666;-68
2022/08/17 10:00:14;;;;;;;3.78;2.83;;;;;;;36.67;34.23;98640.53;4913633;29;20718;-68
2022/08/17 10:03:22;;;;;;;3.05;2.75;;;;;;;36.84;31.67;98652.50;4913740;29;20708;-68
2022/08/17 10:05:55;;;;;;;2.80;2.60;;;;;;;36.61;31.33;98649.69;4894432;29;20250;-67
2022/08/17 10:08:30;;;;;;;3.70;2.80;;;;;;;36.74;33.52;98642.00;4913641;29;20204;-69
2022/08/17 10:11:10;;;;;;;3.13;2.58;;;;;;;36.92;32.84;98641.94;4913362;29;20230;-68
2022/08/17 10:13:46;;;;;;;3.20;2.90;;;;;;;36.82;30.42;98644.00;4913400;29;20207;-67
2022/08/17 10:16:22;;;;;;;4.72;2.97;;;;;;;37.06;31.50;98644.66;4912982;29;20227;-68
2022/08/17 10:19:02;;;;;;;3.15;2.83;;;;;;;37.19;30.56;98634.28;4913273;29;20208;-68
2022/08/17 10:27:11;;;;;;;3.67;2.70;;;;;;;37.34;29.53;98639.28;4913773;29;20623;-68
2022/08/17 10:29:44;;;;;;;3.40;2.72;;;;;;;37.56;30.75;98626.06;4913076;29;20231;-69
2022/08/17 10:32:17;;;;;;;3.10;2.70;;;;;;;37.81;31.78;98638.03;4913479;29;20244;-68
2022/08/17 10:35:01;;;;;;;3.35;2.60;;;;;;;37.55;30.94;98624.47;4913043;29;20217;-68
2022/08/17 10:37:42;;;;;;;4.85;3.00;;;;;;;37.27;30.89;98622.91;4913236;29;20208;-68
2022/08/17 10:40:29;;;;;;;3.30;2.80;;;;;;;37.40;31.52;98616.75;4912701;29;20223;-69
2022/08/17 10:43:00;;;;;;;3.00;2.75;;;;;;;37.30;29.42;98619.66;4913270;29;20204;-68
2022/08/17 10:45:36;;;;;;;3.03;2.70;;;;;;;36.95;29.76;98624.56;4913095;29;20235;-68
2022/08/17 10:48:26;;;;;;;2.88;2.55;;;;;;;37.08;32.10;98615.81;4915004;29;20218;-68
2022/08/17 10:51:06;;;;;;;3.22;2.60;;;;;;;37.08;30.35;98626.47;4917111;29;20299;-68
2022/08/17 10:53:55;;;;;;;2.78;2.58;;;;;;;37.26;29.58;98616.78;4917266;29;20610;-68
2022/08/17 10:56:39;;;;;;;3.05;2.75;;;;;;;37.25;30.40;98615.22;4916904;29;20713;-68
2022/08/17 10:59:06;;;;;;;3.95;2.97;;;;;;;37.49;30.65;98609.66;4915310;29;20296;-68
2022/08/17 11:01:58;;;;;;;2.90;2.60;;;;;;;37.40;29.35;98606.09;4916966;29;20259;-67
2022/08/17 11:04:46;;;;;;;3.55;3.03;;;;;;;36.81;30.03;98605.91;4916515;29;20231;-69
2022/08/17 11:07:24;;;;;;;4.45;3.00;;;;;;;37.06;30.51;98603.84;4917073;29;20211;-68
2022/08/17 11:10:12;;;;;;;3.60;2.90;;;;;;;37.31;30.06;98602.56;4916471;29;20258;-68
2022/08/17 11:12:50;;;;;;;3.10;2.75;;;;;;;37.33;29.94;98590.50;4916882;29;20223;-69
2022/08/17 11:15:31;;;;;;;2.75;2.47;;;;;;;37.52;29.94;98598.38;4916714;29;20232;-68
2022/08/17 11:18:14;;;;;;;3.83;2.95;;;;;;;37.58;30.67;98597.19;4916542;29;20204;-68
2022/08/17 11:21:19;;;;;;;2.72;2.53;;;;;;;37.71;29.28;98600.13;4916770;29;20232;-68
2022/08/17 11:24:00;;;;;;;3.15;2.60;;;;;;;37.53;29.33;98594.66;4916567;29;20274;-69
2022/08/17 11:26:32;;;;;;;2.78;2.53;;;;;;;37.64;28.05;98594.41;4916429;29;20224;-68
2022/08/17 11:29:03;;;;;;;3.05;2.53;;;;;;;37.99;29.25;98590.97;4916159;29;20226;-68
2022/08/17 11:31:35;;;;;;;2.75;2.55;;;;;;;38.32;30.13;98587.22;4916284;29;20204;-68
2022/08/17 11:34:05;;;;;;;2.63;2.42;;;;;;;38.43;32.17;98584.03;4916266;29;20602;-68
2022/08/17 11:37:07;;;;;;;3.30;2.22;;;;;;;38.21;27.83;98586.69;4916292;29;20215;-68
2022/08/17 11:39:59;;;;;;;3.50;2.75;;;;;;;38.29;27.75;98577.94;4915629;29;20227;-68
2022/08/17 11:42:38;;;;;;;2.90;2.60;;;;;;;38.47;27.27;98579.63;4916363;29;20256;-69
2022/08/17 11:45:33;;;;;;;3.35;2.60;;;;;;;38.50;26.99;98576.34;4915876;29;20745;-67
2022/08/17 11:54:05;;;;;;;4.07;2.63;;;;;;;38.08;27.76;98568.84;4916002;29;20313;-68
2022/08/17 11:56:39;;;;;;;4.15;2.63;;;;;;;37.95;28.95;98567.84;4916049;29;20287;-68
2022/08/17 11:59:40;;;;;;;3.00;2.60;;;;;;;37.83;29.01;98576.38;4915319;29;20215;-69
2022/08/17 12:02:31;;;;;;;3.00;2.70;;;;;;;38.04;27.30;98568.69;4915759;29;20212;-68
2022/08/17 12:05:12;;;;;;;3.30;2.60;;;;;;;38.11;28.26;98560.22;4915407;29;20259;-68
2022/08/17 12:07:43;;;;;;;3.95;2.70;;;;;;;38.07;27.13;98559.28;4915789;29;20204;-67
2022/08/17 12:10:14;;;;;;;2.92;2.45;;;;;;;38.21;27.03;98560.00;4915493;29;20235;-67
2022/08/17 12:12:43;;;;;;;3.33;2.72;;;;;;;38.07;28.04;98565.41;4915909;29;20231;-68
2022/08/17 12:15:17;;;;;;;3.28;2.53;;;;;;;37.97;28.55;98563.78;4915465;29;20298;-68
2022/08/17 12:17:52;;;;;;;3.25;2.75;;;;;;;38.08;28.18;98563.50;4915594;29;20459;-68
2022/08/17 12:20:22;;;;;;;2.85;2.45;;;;;;;38.12;27.30;98567.94;4915489;29;20224;-68
2022/08/17 12:23:00;;;;;;;2.50;2.30;;;;;;;37.98;27.72;98560.00;4915380;29;20207;-67
2022/08/17 12:25:34;;;;;;;2.83;2.45;;;;;;;37.98;26.84;98557.34;4915581;29;20315;-68
2022/08/17 12:28:01;;;;;;;3.65;2.67;;;;;;;38.08;27.70;98556.31;4915396;29;20200;-68